Time,TemperatureF,DewpointF,PressureIn,WindDirection,WindDirectionDegrees,WindSpeedMPH,WindSpeedGustMPH,Humidity,HourlyPrecipIn,Conditions,Clouds,dailyrainin,SoftwareType,DateUTC
2013-02-21 00:00:00,31.6,16.4,30.20,NW,323,1.0,5.0,53,0.00,,,0.00,HR-IXPWINDi_r2_v1.2.,2013-02-21 05:00:00,
2013-02-21 00:05:00,31.5,17.6,30.20,NW,319,3.0,6.0,56,0.00,,,0.00,HR-IXPWINDi_r2_v1.2.,2013-02-21 05:05:00,
2013-02-21 00:10:00,31.3,17.0,30.19,NW,312,3.0,7.0,55,0.00,,,0.00,HR-IXPWINDi_r2_v1.2.,2013-02-21 05:10:00,
2013-02-21 00:15:00,31.2,16.5,30.19,NW,313,0.0,7.0,54,0.00,,,0.00,HR-IXPWINDi_r2_v1.2.,2013-02-21 05:15:00,
2013-02-21 00:20:00,31.2,16.1,30.20,NW,311,2.0,6.0,53,0.00,,,0.00,HR-IXPWINDi_r2_v1.2.,2013-02-21 05:20:00,
2013-02-21 00:26:00,31.2,16.1,30.20,NW,319,0.0,4.0,53,0.00,,,0.00,HR-IXPWINDi_r2_v1.2.,2013-02-21 05:26:00,
2013-02-21 00:31:00,31.3,16.2,30.19,WNW,298,0.0,6.0,53,0.00,,,0.00,HR-IXPWINDi_r2_v1.2.,2013-02-21 05:31:00,
2013-02-21 00:36:00,31.4,15.8,30.19,WNW,286,0.0,7.0,52,0.00,,,0.00,HR-IXPWINDi_r2_v1.2.,2013-02-21 05:36:00,
2013-02-21 00:41:00,31.2,16.1,30.19,NW,322,1.0,7.0,53,0.00,,,0.00,HR-IXPWINDi_r2_v1.2.,2013-02-21 05:41:00,
2013-02-21 00:46:00,30.9,16.2,30.19,NW,320,1.0,4.0,54,0.00,,,0.00,HR-IXPWINDi_r2_v1.2.,2013-02-21 05:46:00,
2013-02-21 00:51:00,30.7,15.6,30.19,WNW,300,2.0,6.0,53,0.00,,,0.00,HR-IXPWINDi_r2_v1.2.,2013-02-21 05:51:00,
2013-02-21 00:56:00,30.8,15.7,30.19,NW,317,1.0,6.0,53,0.00,,,0.00,HR-IXPWINDi_r2_v1.2.,2013-02-21 05:56:00,
2013-02-21 01:01:00,30.7,15.6,30.19,NW,304,1.0,6.0,53,0.00,,,0.00,HR-IXPWINDi_r2_v1.2.,2013-02-21 06:01:00,
2013-02-21 01:07:00,30.5,15.9,30.20,West,281,1.0,4.0,54,0.00,,,0.00,HR-IXPWINDi_r2_v1.2.,2013-02-21 06:07:00,
2013-02-21 01:12:00,30.2,15.6,30.19,NW,311,3.0,4.0,54,0.00,,,0.00,HR-IXPWINDi_r2_v1.2.,2013-02-21 06:12:00,
2013-02-21 01:17:00,30.2,16.0,30.20,NNW,331,2.0,5.0,55,0.00,,,0.00,HR-IXPWINDi_r2_v1.2.,2013-02-21 06:17:00,
2013-02-21 01:22:00,30.2,15.6,30.19,NW,308,1.0,5.0,54,0.00,,,0.00,HR-IXPWINDi_r2_v1.2.,2013-02-21 06:22:00,
2013-02-21 01:27:00,30.1,15.9,30.20,NW,322,0.0,4.0,55,0.00,,,0.00,HR-IXPWINDi_r2_v1.2.,2013-02-21 06:27:00,
2013-02-21 01:32:00,30.2,15.6,30.20,North,355,1.0,5.0,54,0.00,,,0.00,HR-IXPWINDi_r2_v1.2.,2013-02-21 06:32:00,
2013-02-21 01:38:00,30.1,15.5,30.20,North,360,1.0,5.0,54,0.00,,,0.00,HR-IXPWINDi_r2_v1.2.,2013-02-21 06:38:00,
2013-02-21 01:43:00,30.1,15.5,30.20,NW,319,4.0,6.0,54,0.00,,,0.00,HR-IXPWINDi_r2_v1.2.,2013-02-21 06:43:00,
2013-02-21 01:48:00,30.1,15.5,30.19,NW,311,4.0,6.0,54,0.00,,,0.00,HR-IXPWINDi_r2_v1.2.,2013-02-21 06:48:00,
2013-02-21 01:54:00,29.8,15.6,30.19,NW,325,3.0,6.0,55,0.00,,,0.00,HR-IXPWINDi_r2_v1.2.,2013-02-21 06:54:00,
2013-02-21 01:59:00,29.6,16.7,30.19,NNW,329,3.0,6.0,58,0.00,,,0.00,HR-IXPWINDi_r2_v1.2.,2013-02-21 06:59:00,
2013-02-21 02:04:00,29.5,15.8,30.19,NW,309,4.0,6.0,56,0.00,,,0.00,HR-IXPWINDi_r2_v1.2.,2013-02-21 07:04:00,
2013-02-21 02:09:00,29.4,15.7,30.19,NW,319,2.0,6.0,56,0.00,,,0.00,HR-IXPWINDi_r2_v1.2.,2013-02-21 07:09:00,
2013-02-21 02:14:00,29.2,15.9,30.19,NNW,334,3.0,5.0,57,0.00,,,0.00,HR-IXPWINDi_r2_v1.2.,2013-02-21 07:14:00,
2013-02-21 02:20:00,29.4,15.7,30.19,NW,321,1.0,5.0,56,0.00,,,0.00,HR-IXPWINDi_r2_v1.2.,2013-02-21 07:20:00,
2013-02-21 02:25:00,29.1,15.8,30.20,North,5,0.0,4.0,57,0.00,,,0.00,HR-IXPWINDi_r2_v1.2.,2013-02-21 07:25:00,
2013-02-21 02:30:00,29.0,15.3,30.20,WNW,302,2.0,3.0,56,0.00,,,0.00,HR-IXPWINDi_r2_v1.2.,2013-02-21 07:30:00,
2013-02-21 02:35:00,29.3,15.6,30.20,NNW,328,1.0,5.0,56,0.00,,,0.00,HR-IXPWINDi_r2_v1.2.,2013-02-21 07:35:00,
2013-02-21 02:40:00,29.4,15.7,30.20,NW,313,1.0,5.0,56,0.00,,,0.00,HR-IXPWINDi_r2_v1.2.,2013-02-21 07:40:00,
2013-02-21 02:46:00,29.5,15.8,30.20,NNW,347,2.0,4.0,56,0.00,,,0.00,HR-IXPWINDi_r2_v1.2.,2013-02-21 07:46:00,
2013-02-21 02:51:00,29.6,15.9,30.20,NNW,343,1.0,4.0,56,0.00,,,0.00,HR-IXPWINDi_r2_v1.2.,2013-02-21 07:51:00,
2013-02-21 02:56:00,29.6,15.9,30.21,NW,311,2.0,4.0,56,0.00,,,0.00,HR-IXPWINDi_r2_v1.2.,2013-02-21 07:56:00,
2013-02-21 03:01:00,29.7,15.5,30.20,NW,324,4.0,4.0,55,0.00,,,0.00,HR-IXPWINDi_r2_v1.2.,2013-02-21 08:01:00,
2013-02-21 03:07:00,29.7,15.5,30.20,NW,321,0.0,4.0,55,0.00,,,0.00,HR-IXPWINDi_r2_v1.2.,2013-02-21 08:07:00,
2013-02-21 03:12:00,29.6,16.3,30.20,NW,311,1.0,4.0,57,0.00,,,0.00,HR-IXPWINDi_r2_v1.2.,2013-02-21 08:12:00,
2013-02-21 03:17:00,29.6,15.9,30.19,NW,314,3.0,4.0,56,0.00,,,0.00,HR-IXPWINDi_r2_v1.2.,2013-02-21 08:17:00,
2013-02-21 03:22:00,29.6,15.9,30.19,WNW,300,0.0,4.0,56,0.00,,,0.00,HR-IXPWINDi_r2_v1.2.,2013-02-21 08:22:00,
2013-02-21 03:27:00,29.5,15.8,30.19,NNW,333,0.0,3.0,56,0.00,,,0.00,HR-IXPWINDi_r2_v1.2.,2013-02-21 08:27:00,
2013-02-21 03:32:00,29.4,15.7,30.19,NW,309,2.0,4.0,56,0.00,,,0.00,HR-IXPWINDi_r2_v1.2.,2013-02-21 08:32:00,
2013-02-21 03:38:00,29.2,15.5,30.19,NW,325,3.0,4.0,56,0.00,,,0.00,HR-IXPWINDi_r2_v1.2.,2013-02-21 08:38:00,
2013-02-21 03:43:00,29.1,15.4,30.19,NNW,330,2.0,4.0,56,0.00,,,0.00,HR-IXPWINDi_r2_v1.2.,2013-02-21 08:43:00,
2013-02-21 03:48:00,29.1,15.8,30.19,NNW,333,3.0,7.0,57,0.00,,,0.00,HR-IXPWINDi_r2_v1.2.,2013-02-21 08:48:00,
2013-02-21 03:53:00,29.0,15.7,30.19,WNW,296,2.0,7.0,57,0.00,,,0.00,HR-IXPWINDi_r2_v1.2.,2013-02-21 08:53:00,
2013-02-21 03:58:00,28.9,15.6,30.19,NNW,333,1.0,5.0,57,0.00,,,0.00,HR-IXPWINDi_r2_v1.2.,2013-02-21 08:58:00,
2013-02-21 04:04:00,28.8,15.5,30.19,NW,312,3.0,5.0,57,0.00,,,0.00,HR-IXPWINDi_r2_v1.2.,2013-02-21 09:04:00,
2013-02-21 04:09:00,28.7,15.8,30.20,NNW,336,2.0,5.0,58,0.00,,,0.00,HR-IXPWINDi_r2_v1.2.,2013-02-21 09:09:00,
2013-02-21 04:14:00,28.6,15.7,30.19,NNE,24,0.0,3.0,58,0.00,,,0.00,HR-IXPWINDi_r2_v1.2.,2013-02-21 09:14:00,
2013-02-21 04:19:00,28.4,15.5,30.19,WNW,302,1.0,4.0,58,0.00,,,0.00,HR-IXPWINDi_r2_v1.2.,2013-02-21 09:19:00,
2013-02-21 04:24:00,28.3,15.4,30.19,NNW,329,4.0,4.0,58,0.00,,,0.00,HR-IXPWINDi_r2_v1.2.,2013-02-21 09:24:00,
2013-02-21 04:29:00,28.3,15.4,30.19,NW,314,0.0,5.0,58,0.00,,,0.00,HR-IXPWINDi_r2_v1.2.,2013-02-21 09:29:00,
2013-02-21 04:35:00,28.1,15.6,30.19,NW,304,1.0,5.0,59,0.00,,,0.00,HR-IXPWINDi_r2_v1.2.,2013-02-21 09:35:00,
2013-02-21 04:40:00,28.0,15.5,30.19,WNW,302,3.0,5.0,59,0.00,,,0.00,HR-IXPWINDi_r2_v1.2.,2013-02-21 09:40:00,
2013-02-21 04:45:00,28.1,15.6,30.19,WNW,297,2.0,5.0,59,0.00,,,0.00,HR-IXPWINDi_r2_v1.2.,2013-02-21 09:45:00,
2013-02-21 04:50:00,28.1,15.6,30.20,NE,54,1.0,4.0,59,0.00,,,0.00,HR-IXPWINDi_r2_v1.2.,2013-02-21 09:50:00,
2013-02-21 04:56:00,28.1,15.6,30.20,NW,319,0.0,9.0,59,0.00,,,0.00,HR-IXPWINDi_r2_v1.2.,2013-02-21 09:56:00,
2013-02-21 05:01:00,28.0,15.5,30.20,NNW,334,1.0,9.0,59,0.00,,,0.00,HR-IXPWINDi_r2_v1.2.,2013-02-21 10:01:00,
2013-02-21 05:06:00,27.9,15.5,30.20,SSW,202,2.0,4.0,59,0.00,,,0.00,HR-IXPWINDi_r2_v1.2.,2013-02-21 10:06:00,
2013-02-21 05:11:00,27.8,15.4,30.21,NW,319,1.0,5.0,59,0.00,,,0.00,HR-IXPWINDi_r2_v1.2.,2013-02-21 10:11:00,
2013-02-21 05:17:00,27.9,15.5,30.21,NW,306,3.0,5.0,59,0.00,,,0.00,HR-IXPWINDi_r2_v1.2.,2013-02-21 10:17:00,
2013-02-21 05:22:00,27.9,15.5,30.21,North,5,1.0,5.0,59,0.00,,,0.00,HR-IXPWINDi_r2_v1.2.,2013-02-21 10:22:00,
2013-02-21 05:27:00,27.8,15.4,30.21,North,355,2.0,5.0,59,0.00,,,0.00,HR-IXPWINDi_r2_v1.2.,2013-02-21 10:27:00,
2013-02-21 05:32:00,27.8,15.4,30.21,NW,319,3.0,5.0,59,0.00,,,0.00,HR-IXPWINDi_r2_v1.2.,2013-02-21 10:32:00,
2013-02-21 05:38:00,27.8,15.4,30.21,NNW,329,0.0,5.0,59,0.00,,,0.00,HR-IXPWINDi_r2_v1.2.,2013-02-21 10:38:00,
2013-02-21 05:43:00,27.7,14.9,30.21,NW,311,2.0,4.0,58,0.00,,,0.00,HR-IXPWINDi_r2_v1.2.,2013-02-21 10:43:00,
2013-02-21 05:48:00,27.6,15.2,30.21,NW,304,3.0,5.0,59,0.00,,,0.00,HR-IXPWINDi_r2_v1.2.,2013-02-21 10:48:00,
2013-02-21 05:53:00,27.6,15.2,30.21,NW,311,2.0,4.0,59,0.00,,,0.00,HR-IXPWINDi_r2_v1.2.,2013-02-21 10:53:00,
2013-02-21 05:58:00,27.6,15.2,30.21,WNW,300,4.0,4.0,59,0.00,,,0.00,HR-IXPWINDi_r2_v1.2.,2013-02-21 10:58:00,
2013-02-21 06:04:00,27.5,15.1,30.21,WNW,298,0.0,7.0,59,0.00,,,0.00,HR-IXPWINDi_r2_v1.2.,2013-02-21 11:04:00,
2013-02-21 06:09:00,27.5,15.1,30.22,NW,323,1.0,7.0,59,0.00,,,0.00,HR-IXPWINDi_r2_v1.2.,2013-02-21 11:09:00,
2013-02-21 06:14:00,27.4,15.0,30.22,WNW,302,0.0,7.0,59,0.00,,,0.00,HR-IXPWINDi_r2_v1.2.,2013-02-21 11:14:00,
2013-02-21 06:19:00,27.3,15.3,30.22,NW,306,3.0,7.0,60,0.00,,,0.00,HR-IXPWINDi_r2_v1.2.,2013-02-21 11:19:00,
2013-02-21 06:25:00,27.3,15.3,30.22,SW,229,0.0,6.0,60,0.00,,,0.00,HR-IXPWINDi_r2_v1.2.,2013-02-21 11:25:00,
2013-02-21 06:30:00,27.2,15.2,30.22,NW,311,0.0,6.0,60,0.00,,,0.00,HR-IXPWINDi_r2_v1.2.,2013-02-21 11:30:00,
2013-02-21 06:35:00,27.2,15.2,30.22,WNW,296,1.0,7.0,60,0.00,,,0.00,HR-IXPWINDi_r2_v1.2.,2013-02-21 11:35:00,
2013-02-21 06:41:00,27.2,15.2,30.22,SSW,200,1.0,7.0,60,0.00,,,0.00,HR-IXPWINDi_r2_v1.2.,2013-02-21 11:41:00,
2013-02-21 06:46:00,27.1,15.1,30.23,NW,314,3.0,6.0,60,0.00,,,0.00,HR-IXPWINDi_r2_v1.2.,2013-02-21 11:46:00,
2013-02-21 06:51:00,27.2,15.2,30.23,WNW,298,1.0,8.0,60,0.00,,,0.00,HR-IXPWINDi_r2_v1.2.,2013-02-21 11:51:00,
2013-02-21 06:56:00,27.2,15.2,30.23,NE,42,1.0,8.0,60,0.00,,,0.00,HR-IXPWINDi_r2_v1.2.,2013-02-21 11:56:00,
2013-02-21 07:02:00,27.2,14.8,30.23,North,355,0.0,5.0,59,0.00,,,0.00,HR-IXPWINDi_r2_v1.2.,2013-02-21 12:02:00,
2013-02-21 07:07:00,27.1,15.1,30.23,SSE,160,5.0,7.0,60,0.00,,,0.00,HR-IXPWINDi_r2_v1.2.,2013-02-21 12:07:00,
2013-02-21 07:12:00,27.2,15.2,30.23,NW,305,0.0,7.0,60,0.00,,,0.00,HR-IXPWINDi_r2_v1.2.,2013-02-21 12:12:00,
2013-02-21 07:17:00,27.2,14.8,30.23,WNW,298,2.0,7.0,59,0.00,,,0.00,HR-IXPWINDi_r2_v1.2.,2013-02-21 12:17:00,
2013-02-21 07:22:00,27.2,15.2,30.23,East,80,1.0,5.0,60,0.00,,,0.00,HR-IXPWINDi_r2_v1.2.,2013-02-21 12:22:00,
2013-02-21 07:28:00,27.2,14.8,30.23,NE,42,0.0,5.0,59,0.00,,,0.00,HR-IXPWINDi_r2_v1.2.,2013-02-21 12:28:00,
2013-02-21 07:33:00,27.3,14.9,30.23,NW,309,5.0,7.0,59,0.00,,,0.00,HR-IXPWINDi_r2_v1.2.,2013-02-21 12:33:00,
2013-02-21 07:38:00,27.4,15.0,30.24,NNW,327,6.0,7.0,59,0.00,,,0.00,HR-IXPWINDi_r2_v1.2.,2013-02-21 12:38:00,
2013-02-21 07:43:00,27.4,15.0,30.24,NW,310,1.0,8.0,59,0.00,,,0.00,HR-IXPWINDi_r2_v1.2.,2013-02-21 12:43:00,
2013-02-21 07:48:00,27.5,15.5,30.24,NNW,327,4.0,8.0,60,0.00,,,0.00,HR-IXPWINDi_r2_v1.2.,2013-02-21 12:48:00,
2013-02-21 07:53:00,27.5,15.1,30.24,NW,323,0.0,16.0,59,0.00,,,0.00,HR-IXPWINDi_r2_v1.2.,2013-02-21 12:53:00,
2013-02-21 07:58:00,27.7,15.3,30.24,West,279,0.0,16.0,59,0.00,,,0.00,HR-IXPWINDi_r2_v1.2.,2013-02-21 12:58:00,
2013-02-21 08:04:00,27.9,15.1,30.25,SW,229,1.0,7.0,58,0.00,,,0.00,HR-IXPWINDi_r2_v1.2.,2013-02-21 13:04:00,
2013-02-21 08:09:00,28.2,15.3,30.25,West,276,0.0,7.0,58,0.00,,,0.00,HR-IXPWINDi_r2_v1.2.,2013-02-21 13:09:00,
2013-02-21 08:14:00,28.1,15.3,30.25,NW,311,3.0,7.0,58,0.00,,,0.00,HR-IXPWINDi_r2_v1.2.,2013-02-21 13:14:00,
2013-02-21 08:20:00,28.1,15.3,30.25,NE,37,2.0,7.0,58,0.00,,,0.00,HR-IXPWINDi_r2_v1.2.,2013-02-21 13:20:00,
2013-02-21 08:25:00,28.3,15.0,30.25,NE,35,1.0,5.0,57,0.00,,,0.00,HR-IXPWINDi_r2_v1.2.,2013-02-21 13:25:00,
2013-02-21 08:30:00,28.3,15.4,30.25,SE,134,1.0,5.0,58,0.00,,,0.00,HR-IXPWINDi_r2_v1.2.,2013-02-21 13:30:00,
2013-02-21 08:35:00,28.4,15.1,30.25,NNW,341,2.0,7.0,57,0.00,,,0.00,HR-IXPWINDi_r2_v1.2.,2013-02-21 13:35:00,
2013-02-21 08:41:00,28.6,15.3,30.25,East,90,2.0,7.0,57,0.00,,,0.00,HR-IXPWINDi_r2_v1.2.,2013-02-21 13:41:00,
2013-02-21 08:46:00,28.8,15.5,30.26,NW,322,0.0,6.0,57,0.00,,,0.00,HR-IXPWINDi_r2_v1.2.,2013-02-21 13:46:00,
2013-02-21 08:51:00,29.0,15.7,30.26,WNW,303,5.0,6.0,57,0.00,,,0.00,HR-IXPWINDi_r2_v1.2.,2013-02-21 13:51:00,
2013-02-21 08:56:00,29.3,15.6,30.26,NNW,340,2.0,10.0,56,0.00,,,0.00,HR-IXPWINDi_r2_v1.2.,2013-02-21 13:56:00,
2013-02-21 09:02:00,29.6,15.4,30.26,South,174,3.0,10.0,55,0.00,,,0.00,HR-IXPWINDi_r2_v1.2.,2013-02-21 14:02:00,
2013-02-21 09:07:00,29.8,15.6,30.26,NW,312,1.0,8.0,55,0.00,,,0.00,HR-IXPWINDi_r2_v1.2.,2013-02-21 14:07:00,
2013-02-21 09:12:00,30.0,15.4,30.26,WNW,303,2.0,13.0,54,0.00,,,0.00,HR-IXPWINDi_r2_v1.2.,2013-02-21 14:12:00,
2013-02-21 09:17:00,30.2,15.2,30.26,North,11,1.0,13.0,53,0.00,,,0.00,HR-IXPWINDi_r2_v1.2.,2013-02-21 14:17:00,
2013-02-21 09:22:00,30.5,15.9,30.26,NW,317,3.0,7.0,54,0.00,,,0.00,HR-IXPWINDi_r2_v1.2.,2013-02-21 14:22:00,
2013-02-21 09:28:00,30.9,15.8,30.25,NNE,26,1.0,7.0,53,0.00,,,0.00,HR-IXPWINDi_r2_v1.2.,2013-02-21 14:28:00,
2013-02-21 09:33:00,31.1,15.5,30.26,SE,132,1.0,9.0,52,0.00,,,0.00,HR-IXPWINDi_r2_v1.2.,2013-02-21 14:33:00,
2013-02-21 09:38:00,31.2,15.6,30.26,ESE,103,0.0,9.0,52,0.00,,,0.00,HR-IXPWINDi_r2_v1.2.,2013-02-21 14:38:00,
2013-02-21 09:43:00,31.5,15.9,30.26,ESE,116,3.0,6.0,52,0.00,,,0.00,HR-IXPWINDi_r2_v1.2.,2013-02-21 14:43:00,
2013-02-21 09:49:00,31.9,15.8,30.26,South,175,2.0,6.0,51,0.00,,,0.00,HR-IXPWINDi_r2_v1.2.,2013-02-21 14:49:00,
2013-02-21 09:54:00,32.1,16.0,30.26,NE,38,2.0,18.0,51,0.00,,,0.00,HR-IXPWINDi_r2_v1.2.,2013-02-21 14:54:00,
2013-02-21 09:59:00,32.4,15.9,30.27,WNW,300,4.0,18.0,50,0.00,,,0.00,HR-IXPWINDi_r2_v1.2.,2013-02-21 14:59:00,
2013-02-21 10:04:00,32.8,15.8,30.27,SE,138,5.0,14.0,49,0.00,,,0.00,HR-IXPWINDi_r2_v1.2.,2013-02-21 15:04:00,
2013-02-21 10:10:00,33.1,16.0,30.27,NW,317,3.0,14.0,49,0.00,,,0.00,HR-IXPWINDi_r2_v1.2.,2013-02-21 15:10:00,
2013-02-21 10:15:00,33.4,16.3,30.27,ESE,118,3.0,8.0,49,0.00,,,0.00,HR-IXPWINDi_r2_v1.2.,2013-02-21 15:15:00,
2013-02-21 10:20:00,33.7,15.6,30.27,North,349,3.0,6.0,47,0.00,,,0.00,HR-IXPWINDi_r2_v1.2.,2013-02-21 15:20:00,
2013-02-21 10:25:00,33.9,15.8,30.27,West,273,2.0,7.0,47,0.00,,,0.00,HR-IXPWINDi_r2_v1.2.,2013-02-21 15:25:00,
2013-02-21 10:30:00,34.3,16.2,30.27,NNW,343,1.0,7.0,47,0.00,,,0.00,HR-IXPWINDi_r2_v1.2.,2013-02-21 15:30:00,
2013-02-21 10:35:00,34.7,16.1,30.26,ESE,115,1.0,6.0,46,0.00,,,0.00,HR-IXPWINDi_r2_v1.2.,2013-02-21 15:35:00,
2013-02-21 10:40:00,35.1,15.9,30.27,NNW,335,4.0,7.0,45,0.00,,,0.00,HR-IXPWINDi_r2_v1.2.,2013-02-21 15:40:00,
2013-02-21 10:46:00,35.4,16.2,30.26,North,355,2.0,7.0,45,0.00,,,0.00,HR-IXPWINDi_r2_v1.2.,2013-02-21 15:46:00,
2013-02-21 10:51:00,35.6,16.9,30.26,NNE,17,2.0,8.0,46,0.00,,,0.00,HR-IXPWINDi_r2_v1.2.,2013-02-21 15:51:00,
2013-02-21 10:56:00,36.1,16.3,30.26,NNW,346,2.0,8.0,44,0.00,,,0.00,HR-IXPWINDi_r2_v1.2.,2013-02-21 15:56:00,
2013-02-21 11:01:00,36.6,16.8,30.26,NNW,346,4.0,8.0,44,0.00,,,0.00,HR-IXPWINDi_r2_v1.2.,2013-02-21 16:01:00,
2013-02-21 11:06:00,37.0,16.6,30.26,NNW,338,2.0,8.0,43,0.00,,,0.00,HR-IXPWINDi_r2_v1.2.,2013-02-21 16:06:00,
2013-02-21 11:12:00,37.6,16.6,30.26,South,178,3.0,8.0,42,0.00,,,0.00,HR-IXPWINDi_r2_v1.2.,2013-02-21 16:12:00,
2013-02-21 11:17:00,37.7,16.7,30.26,NNE,24,2.0,8.0,42,0.00,,,0.00,HR-IXPWINDi_r2_v1.2.,2013-02-21 16:17:00,
2013-02-21 11:22:00,38.1,17.6,30.26,NW,304,3.0,8.0,43,0.00,,,0.00,HR-IXPWINDi_r2_v1.2.,2013-02-21 16:22:00,
2013-02-21 11:27:00,38.4,16.8,30.26,NW,307,3.0,7.0,41,0.00,,,0.00,HR-IXPWINDi_r2_v1.2.,2013-02-21 16:27:00,
2013-02-21 11:32:00,39.0,17.3,30.26,NW,313,1.0,7.0,41,0.00,,,0.00,HR-IXPWINDi_r2_v1.2.,2013-02-21 16:32:00,
2013-02-21 11:38:00,39.2,16.9,30.26,NW,315,4.0,9.0,40,0.00,,,0.00,HR-IXPWINDi_r2_v1.2.,2013-02-21 16:38:00,
2013-02-21 11:43:00,39.4,17.1,30.26,North,355,0.0,10.0,40,0.00,,,0.00,HR-IXPWINDi_r2_v1.2.,2013-02-21 16:43:00,
2013-02-21 11:48:00,40.3,17.9,30.25,NW,321,4.0,10.0,40,0.00,,,0.00,HR-IXPWINDi_r2_v1.2.,2013-02-21 16:48:00,
2013-02-21 11:53:00,40.6,17.6,30.25,NW,310,1.0,7.0,39,0.00,,,0.00,HR-IXPWINDi_r2_v1.2.,2013-02-21 16:53:00,
2013-02-21 11:59:00,41.2,17.5,30.25,NW,316,3.0,7.0,38,0.00,,,0.00,HR-IXPWINDi_r2_v1.2.,2013-02-21 16:59:00,
2013-02-21 12:04:00,41.3,17.6,30.25,South,169,1.0,8.0,38,0.00,,,0.00,HR-IXPWINDi_r2_v1.2.,2013-02-21 17:04:00,
2013-02-21 12:09:00,41.6,17.3,30.25,NNW,348,1.0,8.0,37,0.00,,,0.00,HR-IXPWINDi_r2_v1.2.,2013-02-21 17:09:00,
2013-02-21 12:14:00,42.1,17.7,30.25,NW,310,3.0,5.0,37,0.00,,,0.00,HR-IXPWINDi_r2_v1.2.,2013-02-21 17:14:00,
2013-02-21 12:19:00,42.6,18.2,30.25,North,350,2.0,5.0,37,0.00,,,0.00,HR-IXPWINDi_r2_v1.2.,2013-02-21 17:19:00,
2013-02-21 12:25:00,43.0,17.9,30.24,NW,321,4.0,6.0,36,0.00,,,0.00,HR-IXPWINDi_r2_v1.2.,2013-02-21 17:25:00,
2013-02-21 12:30:00,43.3,18.8,30.24,NW,323,0.0,6.0,37,0.00,,,0.00,HR-IXPWINDi_r2_v1.2.,2013-02-21 17:30:00,
2013-02-21 12:35:00,43.8,17.9,30.24,NNW,336,3.0,4.0,35,0.00,,,0.00,HR-IXPWINDi_r2_v1.2.,2013-02-21 17:35:00,
2013-02-21 12:40:00,43.7,17.8,30.24,West,273,1.0,5.0,35,0.00,,,0.00,HR-IXPWINDi_r2_v1.2.,2013-02-21 17:40:00,
2013-02-21 12:46:00,44.0,18.1,30.24,SSE,164,1.0,5.0,35,0.00,,,0.00,HR-IXPWINDi_r2_v1.2.,2013-02-21 17:46:00,
2013-02-21 12:51:00,44.5,18.6,30.23,West,269,1.0,5.0,35,0.00,,,0.00,HR-IXPWINDi_r2_v1.2.,2013-02-21 17:51:00,
2013-02-21 12:56:00,44.8,17.5,30.23,NW,323,3.0,7.0,33,0.00,,,0.00,HR-IXPWINDi_r2_v1.2.,2013-02-21 17:56:00,
2013-02-21 13:01:00,45.1,18.4,30.23,West,280,1.0,7.0,34,0.00,,,0.00,HR-IXPWINDi_r2_v1.2.,2013-02-21 18:01:00,
2013-02-21 13:06:00,45.3,17.2,30.23,NW,319,2.0,5.0,32,0.00,,,0.00,HR-IXPWINDi_r2_v1.2.,2013-02-21 18:06:00,
2013-02-21 13:12:00,45.3,18.6,30.23,SSW,196,0.0,5.0,34,0.00,,,0.00,HR-IXPWINDi_r2_v1.2.,2013-02-21 18:12:00,
2013-02-21 13:17:00,45.8,18.3,30.22,NNW,331,3.0,9.0,33,0.00,,,0.00,HR-IXPWINDi_r2_v1.2.,2013-02-21 18:17:00,
2013-02-21 13:22:00,45.9,18.4,30.22,WSW,256,0.0,9.0,33,0.00,,,0.00,HR-IXPWINDi_r2_v1.2.,2013-02-21 18:22:00,
2013-02-21 13:27:00,46.0,17.8,30.21,NNE,30,1.0,6.0,32,0.00,,,0.00,HR-IXPWINDi_r2_v1.2.,2013-02-21 18:27:00,
2013-02-21 13:32:00,46.1,18.6,30.20,SW,221,0.0,5.0,33,0.00,,,0.00,HR-IXPWINDi_r2_v1.2.,2013-02-21 18:32:00,
2013-02-21 13:38:00,46.5,18.9,30.20,SSE,152,0.0,5.0,33,0.00,,,0.00,HR-IXPWINDi_r2_v1.2.,2013-02-21 18:38:00,
2013-02-21 13:43:00,46.9,18.6,30.20,NNE,32,1.0,5.0,32,0.00,,,0.00,HR-IXPWINDi_r2_v1.2.,2013-02-21 18:43:00,
2013-02-21 13:48:00,47.0,17.9,30.20,North,11,5.0,5.0,31,0.00,,,0.00,HR-IXPWINDi_r2_v1.2.,2013-02-21 18:48:00,
2013-02-21 13:53:00,46.7,19.1,30.19,North,11,2.0,5.0,33,0.00,,,0.00,HR-IXPWINDi_r2_v1.2.,2013-02-21 18:53:00,
2013-02-21 13:58:00,47.1,18.0,30.19,WSW,244,0.0,5.0,31,0.00,,,0.00,HR-IXPWINDi_r2_v1.2.,2013-02-21 18:58:00,
2013-02-21 14:04:00,47.0,17.9,30.19,NW,323,1.0,5.0,31,0.00,,,0.00,HR-IXPWINDi_r2_v1.2.,2013-02-21 19:04:00,
2013-02-21 14:09:00,46.9,17.8,30.19,North,5,0.0,5.0,31,0.00,,,0.00,HR-IXPWINDi_r2_v1.2.,2013-02-21 19:09:00,
2013-02-21 14:14:00,47.1,19.5,30.18,SE,130,0.0,10.0,33,0.00,,,0.00,HR-IXPWINDi_r2_v1.2.,2013-02-21 19:14:00,
2013-02-21 14:19:00,47.8,19.4,30.19,NW,306,4.0,10.0,32,0.00,,,0.00,HR-IXPWINDi_r2_v1.2.,2013-02-21 19:19:00,
2013-02-21 14:24:00,48.0,19.5,30.19,NNW,334,0.0,5.0,32,0.00,,,0.00,HR-IXPWINDi_r2_v1.2.,2013-02-21 19:24:00,
2013-02-21 14:30:00,48.4,19.2,30.18,NW,322,1.0,5.0,31,0.00,,,0.00,HR-IXPWINDi_r2_v1.2.,2013-02-21 19:30:00,
2013-02-21 14:35:00,48.3,19.8,30.18,NW,315,2.0,5.0,32,0.00,,,0.00,HR-IXPWINDi_r2_v1.2.,2013-02-21 19:35:00,
2013-02-21 14:40:00,48.3,19.1,30.18,SSE,157,4.0,4.0,31,0.00,,,0.00,HR-IXPWINDi_r2_v1.2.,2013-02-21 19:40:00,
2013-02-21 14:45:00,48.2,19.0,30.17,NNW,333,0.0,6.0,31,0.00,,,0.00,HR-IXPWINDi_r2_v1.2.,2013-02-21 19:45:00,
2013-02-21 14:50:00,48.1,18.1,30.17,NNW,342,1.0,6.0,30,0.00,,,0.00,HR-IXPWINDi_r2_v1.2.,2013-02-21 19:50:00,
2013-02-21 14:56:00,48.1,18.9,30.17,WNW,296,1.0,4.0,31,0.00,,,0.00,HR-IXPWINDi_r2_v1.2.,2013-02-21 19:56:00,
2013-02-21 15:01:00,48.1,18.9,30.17,WNW,299,0.0,4.0,31,0.00,,,0.00,HR-IXPWINDi_r2_v1.2.,2013-02-21 20:01:00,
2013-02-21 15:06:00,48.1,18.1,30.18,NW,325,3.0,4.0,30,0.00,,,0.00,HR-IXPWINDi_r2_v1.2.,2013-02-21 20:06:00,
2013-02-21 15:11:00,48.3,18.3,30.18,NW,306,1.0,3.0,30,0.00,,,0.00,HR-IXPWINDi_r2_v1.2.,2013-02-21 20:11:00,
2013-02-21 15:17:00,48.3,17.5,30.18,NW,320,0.0,5.0,29,0.00,,,0.00,HR-IXPWINDi_r2_v1.2.,2013-02-21 20:17:00,
2013-02-21 15:22:00,48.3,17.5,30.19,NNW,336,1.0,5.0,29,0.00,,,0.00,HR-IXPWINDi_r2_v1.2.,2013-02-21 20:22:00,
2013-02-21 15:27:00,48.4,19.2,30.19,NE,37,0.0,5.0,31,0.00,,,0.00,HR-IXPWINDi_r2_v1.2.,2013-02-21 20:27:00,
2013-02-21 15:32:00,48.7,18.7,30.20,NNW,339,0.0,5.0,30,0.00,,,0.00,HR-IXPWINDi_r2_v1.2.,2013-02-21 20:32:00,
2013-02-21 15:37:00,48.8,18.7,30.20,South,173,2.0,5.0,30,0.00,,,0.00,HR-IXPWINDi_r2_v1.2.,2013-02-21 20:37:00,
2013-02-21 15:42:00,48.9,18.8,30.19,NE,35,2.0,5.0,30,0.00,,,0.00,HR-IXPWINDi_r2_v1.2.,2013-02-21 20:42:00,
2013-02-21 15:47:00,49.0,20.4,30.20,North,355,0.0,5.0,32,0.00,,,0.00,HR-IXPWINDi_r2_v1.2.,2013-02-21 20:47:00,
2013-02-21 15:52:00,48.8,19.5,30.20,NW,312,1.0,5.0,31,0.00,,,0.00,HR-IXPWINDi_r2_v1.2.,2013-02-21 20:52:00,
2013-02-21 15:57:00,48.8,19.5,30.19,NNW,331,1.0,5.0,31,0.00,,,0.00,HR-IXPWINDi_r2_v1.2.,2013-02-21 20:57:00,
2013-02-21 16:02:00,48.8,19.5,30.19,NNW,334,0.0,4.0,31,0.00,,,0.00,HR-IXPWINDi_r2_v1.2.,2013-02-21 21:02:00,
2013-02-21 16:08:00,48.7,18.7,30.19,SW,236,1.0,5.0,30,0.00,,,0.00,HR-IXPWINDi_r2_v1.2.,2013-02-21 21:08:00,
2013-02-21 16:13:00,48.7,18.7,30.19,WNW,302,1.0,5.0,30,0.00,,,0.00,HR-IXPWINDi_r2_v1.2.,2013-02-21 21:13:00,
2013-02-21 16:18:00,48.8,18.0,30.18,WNW,302,0.0,4.0,29,0.00,,,0.00,HR-IXPWINDi_r2_v1.2.,2013-02-21 21:18:00,
2013-02-21 16:23:00,48.8,19.5,30.18,North,355,2.0,3.0,31,0.00,,,0.00,HR-IXPWINDi_r2_v1.2.,2013-02-21 21:23:00,
2013-02-21 16:28:00,48.7,17.9,30.18,North,355,0.0,3.0,29,0.00,,,0.00,HR-IXPWINDi_r2_v1.2.,2013-02-21 21:28:00,
2013-02-21 16:33:00,48.7,19.4,30.18,North,355,0.0,3.0,31,0.00,,,0.00,HR-IXPWINDi_r2_v1.2.,2013-02-21 21:33:00,
2013-02-21 16:38:00,48.7,18.7,30.19,North,355,0.0,2.0,30,0.00,,,0.00,HR-IXPWINDi_r2_v1.2.,2013-02-21 21:38:00,
2013-02-21 16:43:00,48.7,18.7,30.19,SE,142,0.0,2.0,30,0.00,,,0.00,HR-IXPWINDi_r2_v1.2.,2013-02-21 21:43:00,
2013-02-21 16:48:00,48.7,20.2,30.20,SE,142,0.0,2.0,32,0.00,,,0.00,HR-IXPWINDi_r2_v1.2.,2013-02-21 21:48:00,
2013-02-21 16:54:00,48.6,20.1,30.21,SE,142,0.0,1.0,32,0.00,,,0.00,HR-IXPWINDi_r2_v1.2.,2013-02-21 21:54:00,
2013-02-21 16:59:00,48.5,19.2,30.21,SW,216,0.0,3.0,31,0.00,,,0.00,HR-IXPWINDi_r2_v1.2.,2013-02-21 21:59:00,
2013-02-21 17:04:00,48.5,19.2,30.21,SW,216,0.0,3.0,31,0.00,,,0.00,HR-IXPWINDi_r2_v1.2.,2013-02-21 22:04:00,
2013-02-21 17:09:00,48.3,19.1,30.21,WNW,298,0.0,3.0,31,0.00,,,0.00,HR-IXPWINDi_r2_v1.2.,2013-02-21 22:09:00,
2013-02-21 17:15:00,48.2,19.0,30.21,South,173,0.0,3.0,31,0.00,,,0.00,HR-IXPWINDi_r2_v1.2.,2013-02-21 22:15:00,
2013-02-21 17:20:00,48.0,18.8,30.22,West,270,0.0,3.0,31,0.00,,,0.00,HR-IXPWINDi_r2_v1.2.,2013-02-21 22:20:00,
2013-02-21 17:25:00,47.8,18.6,30.21,WSW,252,1.0,3.0,31,0.00,,,0.00,HR-IXPWINDi_r2_v1.2.,2013-02-21 22:25:00,
2013-02-21 17:30:00,47.6,18.5,30.21,WSW,252,0.0,1.0,31,0.00,,,0.00,HR-IXPWINDi_r2_v1.2.,2013-02-21 22:30:00,
2013-02-21 17:35:00,47.3,18.9,30.22,SE,139,0.0,2.0,32,0.00,,,0.00,HR-IXPWINDi_r2_v1.2.,2013-02-21 22:35:00,
2013-02-21 17:41:00,47.1,18.8,30.22,SE,139,0.0,2.0,32,0.00,,,0.00,HR-IXPWINDi_r2_v1.2.,2013-02-21 22:41:00,
2013-02-21 17:46:00,46.8,19.9,30.22,SE,139,0.0,1.0,34,0.00,,,0.00,HR-IXPWINDi_r2_v1.2.,2013-02-21 22:46:00,
2013-02-21 17:51:00,46.4,19.6,30.23,SSE,147,0.0,2.0,34,0.00,,,0.00,HR-IXPWINDi_r2_v1.2.,2013-02-21 22:51:00,
2013-02-21 17:56:00,46.0,19.9,30.23,SSE,147,0.0,2.0,35,0.00,,,0.00,HR-IXPWINDi_r2_v1.2.,2013-02-21 22:56:00,
2013-02-21 18:01:00,45.5,20.7,30.23,SSE,147,0.0,0.0,37,0.00,,,0.00,HR-IXPWINDi_r2_v1.2.,2013-02-21 23:01:00,
2013-02-21 18:07:00,45.0,20.3,30.24,SSE,147,0.0,0.0,37,0.00,,,0.00,HR-IXPWINDi_r2_v1.2.,2013-02-21 23:07:00,
2013-02-21 18:12:00,44.5,21.1,30.24,SSE,147,0.0,0.0,39,0.00,,,0.00,HR-IXPWINDi_r2_v1.2.,2013-02-21 23:12:00,
2013-02-21 18:17:00,43.9,21.7,30.24,SSE,147,0.0,0.0,41,0.00,,,0.00,HR-IXPWINDi_r2_v1.2.,2013-02-21 23:17:00,
2013-02-21 18:22:00,43.4,21.3,30.24,SSE,147,0.0,0.0,41,0.00,,,0.00,HR-IXPWINDi_r2_v1.2.,2013-02-21 23:22:00,
2013-02-21 18:27:00,42.9,20.2,30.24,SSE,147,0.0,1.0,40,0.00,,,0.00,HR-IXPWINDi_r2_v1.2.,2013-02-21 23:27:00,
2013-02-21 18:32:00,42.5,20.5,30.23,SSE,147,0.0,1.0,41,0.00,,,0.00,HR-IXPWINDi_r2_v1.2.,2013-02-21 23:32:00,
2013-02-21 18:37:00,42.0,20.6,30.23,SSE,147,0.0,1.0,42,0.00,,,0.00,HR-IXPWINDi_r2_v1.2.,2013-02-21 23:37:00,
2013-02-21 18:43:00,41.6,21.8,30.23,SSE,147,0.0,2.0,45,0.00,,,0.00,HR-IXPWINDi_r2_v1.2.,2013-02-21 23:43:00,
2013-02-21 18:48:00,41.0,21.8,30.24,SSE,147,0.0,2.0,46,0.00,,,0.00,HR-IXPWINDi_r2_v1.2.,2013-02-21 23:48:00,
2013-02-21 18:53:00,40.6,21.4,30.24,SSE,147,0.0,2.0,46,0.00,,,0.00,HR-IXPWINDi_r2_v1.2.,2013-02-21 23:53:00,
2013-02-21 18:59:00,40.3,21.7,30.24,SSE,147,0.0,2.0,47,0.00,,,0.00,HR-IXPWINDi_r2_v1.2.,2013-02-21 23:59:00,
2013-02-21 19:04:00,39.9,21.8,30.25,SSE,147,0.0,0.0,48,0.00,,,0.00,HR-IXPWINDi_r2_v1.2.,2013-02-22 00:04:00,
2013-02-21 19:09:00,39.6,21.0,30.24,SSE,147,0.0,0.0,47,0.00,,,0.00,HR-IXPWINDi_r2_v1.2.,2013-02-22 00:09:00,
2013-02-21 19:14:00,39.3,21.2,30.24,SSE,147,0.0,0.0,48,0.00,,,0.00,HR-IXPWINDi_r2_v1.2.,2013-02-22 00:14:00,
2013-02-21 19:19:00,39.1,19.6,30.24,SSE,147,0.0,0.0,45,0.00,,,0.00,HR-IXPWINDi_r2_v1.2.,2013-02-22 00:19:00,
2013-02-21 19:25:00,38.9,22.3,30.24,ESE,103,0.0,2.0,51,0.00,,,0.00,HR-IXPWINDi_r2_v1.2.,2013-02-22 00:25:00,
2013-02-21 19:30:00,38.8,21.3,30.25,ESE,103,0.0,2.0,49,0.00,,,0.00,HR-IXPWINDi_r2_v1.2.,2013-02-22 00:30:00,
2013-02-21 19:35:00,38.7,21.7,30.24,ESE,103,0.0,1.0,50,0.00,,,0.00,HR-IXPWINDi_r2_v1.2.,2013-02-22 00:35:00,
2013-02-21 19:40:00,38.6,21.6,30.25,ESE,103,0.0,1.0,50,0.00,,,0.00,HR-IXPWINDi_r2_v1.2.,2013-02-22 00:40:00,
2013-02-21 19:45:00,38.6,22.5,30.25,ESE,103,1.0,1.0,52,0.00,,,0.00,HR-IXPWINDi_r2_v1.2.,2013-02-22 00:45:00,
2013-02-21 19:51:00,38.5,22.4,30.25,ESE,103,0.0,1.0,52,0.00,,,0.00,HR-IXPWINDi_r2_v1.2.,2013-02-22 00:51:00,
2013-02-21 19:56:00,38.5,22.8,30.25,ESE,103,0.0,1.0,53,0.00,,,0.00,HR-IXPWINDi_r2_v1.2.,2013-02-22 00:56:00,
2013-02-21 20:01:00,38.5,22.8,30.25,ESE,103,0.0,0.0,53,0.00,,,0.00,HR-IXPWINDi_r2_v1.2.,2013-02-22 01:01:00,
2013-02-21 20:06:00,38.4,23.2,30.25,ESE,103,0.0,0.0,54,0.00,,,0.00,HR-IXPWINDi_r2_v1.2.,2013-02-22 01:06:00,
2013-02-21 20:11:00,38.3,21.8,30.25,ESE,103,0.0,0.0,51,0.00,,,0.00,HR-IXPWINDi_r2_v1.2.,2013-02-22 01:11:00,
2013-02-21 20:17:00,38.3,22.2,30.26,ESE,103,0.0,0.0,52,0.00,,,0.00,HR-IXPWINDi_r2_v1.2.,2013-02-22 01:17:00,
2013-02-21 20:22:00,38.3,21.8,30.25,ESE,103,0.0,1.0,51,0.00,,,0.00,HR-IXPWINDi_r2_v1.2.,2013-02-22 01:22:00,
2013-02-21 20:27:00,38.4,23.2,30.25,ESE,103,0.0,1.0,54,0.00,,,0.00,HR-IXPWINDi_r2_v1.2.,2013-02-22 01:27:00,
2013-02-21 20:32:00,38.3,23.1,30.25,ESE,103,0.0,1.0,54,0.00,,,0.00,HR-IXPWINDi_r2_v1.2.,2013-02-22 01:32:00,
2013-02-21 20:37:00,38.2,23.4,30.25,ESE,103,0.0,1.0,55,0.00,,,0.00,HR-IXPWINDi_r2_v1.2.,2013-02-22 01:37:00,
2013-02-21 20:43:00,38.1,22.0,30.25,ESE,103,1.0,1.0,52,0.00,,,0.00,HR-IXPWINDi_r2_v1.2.,2013-02-22 01:43:00,
2013-02-21 20:48:00,38.2,23.9,30.25,ESE,103,0.0,2.0,56,0.00,,,0.00,HR-IXPWINDi_r2_v1.2.,2013-02-22 01:48:00,
2013-02-21 20:53:00,38.3,23.1,30.25,ESE,103,0.0,2.0,54,0.00,,,0.00,HR-IXPWINDi_r2_v1.2.,2013-02-22 01:53:00,
2013-02-21 20:58:00,38.4,22.8,30.26,ESE,103,0.0,2.0,53,0.00,,,0.00,HR-IXPWINDi_r2_v1.2.,2013-02-22 01:58:00,
2013-02-21 21:03:00,38.4,22.3,30.26,ESE,103,0.0,1.0,52,0.00,,,0.00,HR-IXPWINDi_r2_v1.2.,2013-02-22 02:03:00,
2013-02-21 21:09:00,38.5,21.5,30.26,ESE,103,0.0,0.0,50,0.00,,,0.00,HR-IXPWINDi_r2_v1.2.,2013-02-22 02:09:00,
2013-02-21 21:14:00,38.7,22.6,30.26,ESE,104,0.0,2.0,52,0.00,,,0.00,HR-IXPWINDi_r2_v1.2.,2013-02-22 02:14:00,
2013-02-21 21:19:00,38.9,22.8,30.26,ESE,104,0.0,2.0,52,0.00,,,0.00,HR-IXPWINDi_r2_v1.2.,2013-02-22 02:19:00,
2013-02-21 21:24:00,39.0,23.8,30.27,ESE,104,0.0,1.0,54,0.00,,,0.00,HR-IXPWINDi_r2_v1.2.,2013-02-22 02:24:00,
2013-02-21 21:29:00,39.1,23.0,30.27,ESE,104,0.0,1.0,52,0.00,,,0.00,HR-IXPWINDi_r2_v1.2.,2013-02-22 02:29:00,
2013-02-21 21:35:00,39.1,23.4,30.27,ESE,104,0.0,0.0,53,0.00,,,0.00,HR-IXPWINDi_r2_v1.2.,2013-02-22 02:35:00,
2013-02-21 21:40:00,39.1,22.5,30.27,ESE,104,0.0,0.0,51,0.00,,,0.00,HR-IXPWINDi_r2_v1.2.,2013-02-22 02:40:00,
2013-02-21 21:45:00,39.1,23.4,30.27,ESE,104,0.0,0.0,53,0.00,,,0.00,HR-IXPWINDi_r2_v1.2.,2013-02-22 02:45:00,
2013-02-21 21:50:00,39.1,23.4,30.27,ESE,104,0.0,1.0,53,0.00,,,0.00,HR-IXPWINDi_r2_v1.2.,2013-02-22 02:50:00,
2013-02-21 21:55:00,39.1,23.0,30.26,ESE,104,0.0,1.0,52,0.00,,,0.00,HR-IXPWINDi_r2_v1.2.,2013-02-22 02:55:00,
2013-02-21 22:01:00,39.1,23.4,30.26,ESE,104,0.0,1.0,53,0.00,,,0.00,HR-IXPWINDi_r2_v1.2.,2013-02-22 03:01:00,
2013-02-21 22:06:00,39.1,23.4,30.26,ESE,104,0.0,1.0,53,0.00,,,0.00,HR-IXPWINDi_r2_v1.2.,2013-02-22 03:06:00,
2013-02-21 22:11:00,39.1,23.0,30.27,ESE,104,0.0,0.0,52,0.00,,,0.00,HR-IXPWINDi_r2_v1.2.,2013-02-22 03:11:00,
2013-02-21 22:16:00,39.1,23.9,30.27,ESE,104,0.0,0.0,54,0.00,,,0.00,HR-IXPWINDi_r2_v1.2.,2013-02-22 03:16:00,
2013-02-21 22:21:00,39.1,23.4,30.28,ESE,104,0.0,0.0,53,0.00,,,0.00,HR-IXPWINDi_r2_v1.2.,2013-02-22 03:21:00,
2013-02-21 22:27:00,39.0,22.9,30.29,ESE,104,0.0,0.0,52,0.00,,,0.00,HR-IXPWINDi_r2_v1.2.,2013-02-22 03:27:00,
2013-02-21 22:32:00,39.0,22.9,30.28,ESE,111,1.0,2.0,52,0.00,,,0.00,HR-IXPWINDi_r2_v1.2.,2013-02-22 03:32:00,
2013-02-21 22:37:00,39.6,22.0,30.28,NNW,327,2.0,3.0,49,0.00,,,0.00,HR-IXPWINDi_r2_v1.2.,2013-02-22 03:37:00,
2013-02-21 22:42:00,40.2,21.1,30.29,East,96,2.0,3.0,46,0.00,,,0.00,HR-IXPWINDi_r2_v1.2.,2013-02-22 03:42:00,
2013-02-21 22:47:00,40.8,20.0,30.30,East,92,2.0,5.0,43,0.00,,,0.00,HR-IXPWINDi_r2_v1.2.,2013-02-22 03:47:00,
2013-02-21 22:53:00,41.2,20.9,30.30,ESE,120,0.0,5.0,44,0.00,,,0.00,HR-IXPWINDi_r2_v1.2.,2013-02-22 03:53:00,
2013-02-21 22:58:00,41.2,20.4,30.30,ESE,117,0.0,2.0,43,0.00,,,0.00,HR-IXPWINDi_r2_v1.2.,2013-02-22 03:58:00,
2013-02-21 23:03:00,41.0,20.2,30.30,ESE,117,0.0,2.0,43,0.00,,,0.00,HR-IXPWINDi_r2_v1.2.,2013-02-22 04:03:00,
2013-02-21 23:08:00,40.9,20.1,30.30,ESE,112,0.0,5.0,43,0.00,,,0.00,HR-IXPWINDi_r2_v1.2.,2013-02-22 04:08:00,
2013-02-21 23:13:00,40.8,20.6,30.30,ESE,115,0.0,5.0,44,0.00,,,0.00,HR-IXPWINDi_r2_v1.2.,2013-02-22 04:13:00,
2013-02-21 23:19:00,40.7,20.5,30.31,SE,126,1.0,4.0,44,0.00,,,0.00,HR-IXPWINDi_r2_v1.2.,2013-02-22 04:19:00,
2013-02-21 23:24:00,40.6,20.4,30.31,SE,127,1.0,3.0,44,0.00,,,0.00,HR-IXPWINDi_r2_v1.2.,2013-02-22 04:24:00,
2013-02-21 23:29:00,40.5,20.3,30.31,SSE,158,0.0,5.0,44,0.00,,,0.00,HR-IXPWINDi_r2_v1.2.,2013-02-22 04:29:00,
2013-02-21 23:34:00,40.5,19.8,30.31,East,93,1.0,5.0,43,0.00,,,0.00,HR-IXPWINDi_r2_v1.2.,2013-02-22 04:34:00,
2013-02-21 23:40:00,40.4,20.2,30.32,ENE,74,1.0,6.0,44,0.00,,,0.00,HR-IXPWINDi_r2_v1.2.,2013-02-22 04:40:00,
2013-02-21 23:45:00,40.3,20.1,30.32,East,99,0.0,6.0,44,0.00,,,0.00,HR-IXPWINDi_r2_v1.2.,2013-02-22 04:45:00,
2013-02-21 23:50:00,40.2,20.0,30.33,East,86,2.0,2.0,44,0.00,,,0.00,HR-IXPWINDi_r2_v1.2.,2013-02-22 04:50:00,
2013-02-21 23:55:00,40.1,19.9,30.33,ENE,78,0.0,4.0,44,0.00,,,0.00,HR-IXPWINDi_r2_v1.2.,2013-02-22 04:55:00,